createdAt,value
2019-04-14T00:02:25.129Z,19.00
2019-04-14T00:04:55.577Z,19.10
2019-04-14T00:07:25.772Z,19.00
2019-04-14T00:09:56.297Z,19.33
2019-04-14T00:12:27.325Z,19.43
2019-04-14T00:14:57.600Z,19.20
2019-04-14T00:17:28.383Z,19.87
2019-04-14T00:19:58.827Z,18.83
2019-04-14T00:22:30.648Z,20.17
2019-04-14T00:25:00.407Z,18.87
2019-04-14T00:27:30.350Z,18.47
2019-04-14T00:30:01.134Z,19.10
2019-04-14T00:32:33.391Z,18.73
2019-04-14T00:35:12.371Z,18.10
2019-04-14T00:38:02.354Z,18.40
2019-04-14T00:40:37.459Z,18.30
2019-04-14T00:43:19.899Z,20.00
2019-04-14T00:46:04.405Z,18.50
2019-04-14T00:48:34.361Z,19.97
2019-04-14T00:51:04.850Z,19.20
2019-04-14T00:53:36.031Z,17.13
2019-04-14T00:56:06.211Z,18.93
2019-04-14T00:58:36.788Z,17.57
2019-04-14T01:01:07.054Z,18.83
2019-04-14T01:03:37.352Z,18.20
2019-04-14T01:06:07.657Z,18.73
2019-04-14T01:08:44.559Z,17.87
2019-04-14T01:11:14.557Z,18.00
2019-04-14T01:13:44.501Z,19.63
2019-04-14T01:16:18.926Z,19.20
2019-04-14T01:18:47.198Z,19.13
2019-04-14T01:21:17.438Z,18.53
2019-04-14T01:23:48.009Z,18.10
2019-04-14T01:26:18.191Z,17.87
2019-04-14T01:28:48.370Z,18.57
2019-04-14T01:31:18.480Z,18.07
2019-04-14T01:33:49.107Z,17.87
2019-04-14T01:36:19.213Z,16.87
2019-04-14T01:38:49.287Z,17.37
2019-04-14T01:41:19.400Z,17.13
2019-04-14T01:43:49.612Z,18.53
2019-04-14T01:46:24.705Z,18.87
2019-04-14T01:48:51.888Z,17.77
2019-04-14T01:51:44.204Z,19.87
2019-04-14T01:54:21.995Z,18.83
2019-04-14T02:00:26.936Z,18.23
2019-04-14T02:02:57.606Z,17.13
2019-04-14T02:05:27.779Z,17.23
2019-04-14T02:07:58.019Z,17.83
2019-04-14T02:10:28.098Z,18.00
2019-04-14T02:12:58.454Z,18.43
2019-04-14T02:15:28.670Z,18.47
2019-04-14T02:17:58.942Z,17.37
2019-04-14T02:20:29.647Z,17.93
2019-04-14T02:22:59.634Z,18.73
2019-04-14T02:25:29.631Z,17.67
2019-04-14T02:28:00.142Z,18.67
2019-04-14T02:30:36.285Z,16.87
2019-04-14T02:33:32.159Z,18.17
2019-04-14T02:36:06.020Z,18.90
2019-04-14T02:41:02.787Z,17.87
2019-04-14T02:43:37.986Z,16.87
2019-04-14T02:46:02.622Z,17.30
2019-04-14T02:51:13.745Z,16.97
2019-04-14T02:53:44.190Z,17.93
2019-04-14T02:56:16.722Z,16.50
2019-04-14T02:58:48.860Z,17.47
2019-04-14T03:03:43.460Z,17.90
2019-04-14T03:08:55.053Z,17.90
2019-04-14T03:11:25.426Z,17.53
2019-04-14T03:13:53.142Z,17.17
2019-04-14T03:16:33.084Z,18.00
2019-04-14T03:19:24.968Z,17.70
2019-04-14T03:22:12.319Z,18.43
2019-04-14T03:24:47.582Z,17.33
2019-04-14T03:27:47.858Z,17.27
2019-04-14T03:33:21.122Z,17.90
2019-04-14T03:37:59.482Z,18.60
2019-04-14T03:40:33.752Z,18.80
2019-04-14T03:45:43.298Z,18.23
2019-04-14T03:50:37.007Z,17.93
2019-04-14T03:53:16.282Z,18.63
2019-04-14T03:56:02.668Z,19.20
2019-04-14T03:58:31.377Z,20.07
2019-04-14T04:01:01.917Z,18.47
2019-04-14T04:03:32.474Z,18.53
2019-04-14T04:06:03.188Z,17.67
2019-04-14T04:08:33.411Z,18.93
2019-04-14T04:11:04.042Z,18.67
2019-04-14T04:13:34.532Z,17.90
2019-04-14T04:16:17.971Z,18.93
2019-04-14T04:18:57.959Z,17.90
2019-04-14T04:21:38.803Z,19.00
2019-04-14T04:24:30.619Z,18.97
2019-04-14T04:27:06.844Z,19.83
2019-04-14T04:29:50.679Z,18.80
2019-04-14T04:32:31.855Z,17.97
2019-04-14T04:35:10.727Z,20.17
2019-04-14T04:37:54.148Z,20.67
2019-04-14T04:40:28.929Z,19.33
2019-04-14T04:42:59.169Z,19.93
2019-04-14T04:45:29.984Z,18.60
2019-04-14T04:48:00.265Z,19.57
2019-04-14T04:50:30.382Z,19.27
2019-04-14T04:53:00.504Z,18.37
2019-04-14T04:55:30.676Z,19.63
2019-04-14T04:58:01.370Z,21.00
2019-04-14T05:00:31.373Z,20.20
2019-04-14T05:03:01.469Z,19.50
2019-04-14T05:06:07.258Z,19.73
2019-04-14T05:08:39.454Z,19.07
2019-04-14T05:11:16.519Z,19.37
2019-04-14T05:13:48.987Z,19.77
2019-04-14T05:16:19.244Z,20.07
2019-04-14T05:18:49.439Z,19.73
2019-04-14T05:21:19.343Z,18.80
2019-04-14T05:23:49.514Z,20.50
2019-04-14T05:26:19.907Z,18.97
2019-04-14T05:28:50.656Z,19.53
2019-04-14T05:31:20.791Z,18.67
2019-04-14T05:33:51.192Z,20.10
2019-04-14T05:36:21.477Z,19.87
2019-04-14T05:38:51.814Z,18.87
2019-04-14T05:41:22.266Z,19.30
2019-04-14T05:43:57.081Z,20.70
2019-04-14T05:46:25.150Z,21.20
2019-04-14T05:48:55.820Z,20.10
2019-04-14T05:51:26.434Z,19.97
2019-04-14T05:53:56.694Z,20.47
2019-04-14T05:56:27.464Z,19.67
2019-04-14T05:58:58.012Z,19.70
2019-04-14T06:01:29.009Z,19.33
2019-04-14T06:04:00.290Z,20.43
2019-04-14T06:06:30.274Z,19.23
2019-04-14T06:09:00.239Z,20.27
2019-04-14T06:11:30.142Z,20.30
2019-04-14T06:14:00.057Z,20.63
2019-04-14T06:16:29.888Z,20.37
2019-04-14T06:18:59.760Z,20.40
2019-04-14T06:21:29.769Z,19.70
2019-04-14T06:23:59.652Z,19.43
2019-04-14T06:26:29.500Z,21.50
2019-04-14T06:28:59.424Z,20.80
2019-04-14T06:31:51.038Z,20.60
2019-04-14T06:34:28.338Z,19.33
2019-04-14T06:37:15.454Z,20.70
2019-04-14T06:39:49.597Z,20.30
2019-04-14T06:42:19.511Z,20.77
2019-04-14T06:44:49.450Z,21.70
2019-04-14T06:47:19.345Z,21.70
2019-04-14T06:49:49.541Z,21.10
2019-04-14T06:52:19.561Z,19.83
2019-04-14T06:54:49.479Z,21.47
2019-04-14T06:57:19.376Z,22.00
2019-04-14T06:59:49.277Z,19.93
2019-04-14T07:02:22.275Z,19.67
2019-04-14T07:04:52.163Z,19.00
2019-04-14T07:07:22.080Z,21.03
2019-04-14T07:09:51.920Z,20.80
2019-04-14T07:12:21.746Z,20.13
2019-04-14T07:14:51.695Z,20.17
2019-04-14T07:17:21.629Z,20.40
2019-04-14T07:20:01.354Z,21.00
2019-04-14T07:22:22.438Z,20.70
2019-04-14T07:24:53.241Z,20.67
2019-04-14T07:27:23.171Z,19.10
2019-04-14T07:30:01.953Z,19.27
2019-04-14T07:32:53.849Z,20.13
2019-04-14T07:35:41.669Z,19.63
2019-04-14T07:38:16.803Z,19.80
2019-04-14T07:41:04.844Z,20.20
2019-04-14T07:43:52.591Z,19.93
2019-04-14T07:46:44.517Z,20.00
2019-04-14T07:49:32.787Z,18.13
2019-04-14T07:52:20.466Z,20.07
2019-04-14T07:55:04.290Z,19.40
2019-04-14T07:57:53.164Z,19.10
2019-04-14T08:00:38.696Z,19.60
2019-04-14T08:03:13.305Z,18.67
2019-04-14T08:05:43.188Z,18.23
2019-04-14T08:08:13.127Z,18.53
2019-04-14T08:10:42.499Z,19.47
2019-04-14T08:13:13.371Z,19.37
2019-04-14T08:15:43.330Z,19.00
2019-04-14T08:18:13.202Z,19.13
2019-04-14T08:20:43.270Z,20.37
2019-04-14T08:23:13.261Z,18.17
2019-04-14T08:25:43.197Z,18.83
2019-04-14T08:28:12.525Z,18.33
2019-04-14T08:30:42.333Z,19.13
2019-04-14T08:33:12.312Z,19.53
2019-04-14T08:35:42.298Z,19.00
2019-04-14T08:38:12.231Z,19.37
2019-04-14T08:40:42.165Z,18.93
2019-04-14T08:43:21.968Z,20.23
2019-04-14T08:46:13.878Z,18.60
2019-04-14T08:48:47.234Z,18.80
2019-04-14T08:51:21.861Z,21.87
2019-04-14T08:54:10.146Z,18.77
2019-04-14T08:57:10.536Z,19.83
2019-04-14T08:59:52.707Z,19.80
2019-04-14T09:02:54.813Z,20.07
2019-04-14T09:05:53.802Z,20.30
2019-04-14T09:08:27.923Z,19.97
2019-04-14T09:10:59.961Z,19.83
2019-04-14T09:13:31.928Z,20.23
2019-04-14T09:16:06.890Z,19.27
2019-04-14T09:18:36.797Z,19.40
2019-04-14T09:21:06.656Z,19.77
2019-04-14T09:23:38.218Z,19.77
2019-04-14T09:26:08.144Z,19.50
2019-04-14T09:28:38.247Z,21.13
2019-04-14T09:31:09.952Z,20.17
2019-04-14T09:33:39.878Z,19.23
2019-04-14T09:36:09.823Z,19.33
2019-04-14T09:38:41.650Z,19.20
2019-04-14T09:41:11.632Z,18.87
2019-04-14T09:43:41.605Z,18.43
2019-04-14T09:46:11.513Z,18.17
2019-04-14T09:48:42.921Z,19.00
2019-04-14T09:51:13.117Z,18.37
2019-04-14T09:53:43.074Z,18.40
2019-04-14T09:56:14.090Z,18.67
2019-04-14T09:58:44.163Z,18.43
2019-04-14T10:01:14.099Z,18.70
2019-04-14T10:03:44.074Z,19.03
2019-04-14T10:06:14.113Z,19.27
2019-04-14T10:08:44.063Z,18.77
2019-04-14T10:11:17.644Z,19.27
2019-04-14T10:13:47.416Z,18.67
2019-04-14T10:16:17.368Z,18.57
2019-04-14T10:18:47.410Z,18.97
2019-04-14T10:21:18.009Z,20.43
2019-04-14T10:23:48.544Z,18.97
2019-04-14T10:26:19.889Z,18.57
2019-04-14T10:28:50.796Z,18.67
2019-04-14T10:31:21.089Z,18.13
2019-04-14T10:33:53.023Z,19.10
2019-04-14T10:36:23.082Z,19.93
2019-04-14T10:38:53.025Z,20.73
2019-04-14T10:41:23.049Z,21.50
2019-04-14T10:43:54.680Z,20.77
2019-04-14T10:46:24.780Z,20.87
2019-04-14T10:48:54.713Z,19.53
2019-04-14T10:51:30.207Z,21.03
2019-04-14T10:53:56.237Z,19.60
2019-04-14T10:56:26.193Z,19.07
2019-04-14T10:58:56.178Z,20.17
2019-04-14T11:01:26.161Z,20.80
2019-04-14T11:03:56.109Z,19.53
2019-04-14T11:06:38.976Z,18.17
2019-04-14T11:09:13.938Z,19.10
2019-04-14T11:11:44.617Z,21.13
2019-04-14T11:14:14.560Z,19.83
2019-04-14T11:16:44.513Z,18.20
2019-04-14T11:19:14.663Z,19.53
2019-04-14T11:21:44.622Z,19.40
2019-04-14T11:24:14.601Z,18.97
2019-04-14T11:26:44.524Z,18.17
2019-04-14T11:29:14.479Z,20.27
2019-04-14T11:31:54.826Z,17.37
2019-04-14T11:34:29.078Z,19.70
2019-04-14T11:37:20.869Z,19.23
2019-04-14T11:39:50.828Z,19.57
2019-04-14T11:42:20.721Z,19.17
2019-04-14T11:44:50.833Z,20.43
2019-04-14T11:47:21.042Z,19.60
2019-04-14T11:49:50.973Z,18.40
2019-04-14T11:52:20.927Z,24.93
2019-04-14T11:54:50.889Z,21.43
2019-04-14T11:57:20.830Z,21.80
2019-04-14T11:59:56.936Z,23.90
2019-04-14T12:02:45.729Z,19.03
2019-04-14T12:05:26.860Z,23.40
2019-04-14T12:08:11.803Z,21.97
2019-04-14T12:10:41.714Z,19.50
2019-04-14T12:13:11.646Z,19.37
2019-04-14T12:15:41.585Z,21.17
2019-04-14T12:18:11.554Z,20.90
2019-04-14T12:20:41.617Z,17.53
2019-04-14T12:23:11.533Z,17.60
2019-04-14T12:25:41.477Z,17.97
2019-04-14T12:28:11.429Z,18.00
2019-04-14T12:30:41.994Z,17.50
2019-04-14T12:33:12.037Z,17.23
2019-04-14T12:35:43.010Z,17.50
2019-04-14T12:38:13.022Z,17.60
2019-04-14T12:40:42.984Z,17.83
2019-04-14T12:43:37.860Z,17.97
2019-04-14T12:46:20.815Z,17.30
2019-04-14T12:48:57.488Z,17.70
2019-04-14T12:51:35.582Z,17.40
2019-04-14T12:54:06.673Z,17.60
2019-04-14T12:56:36.696Z,18.57
2019-04-14T12:59:25.534Z,17.20
2019-04-14T13:02:05.282Z,17.57
2019-04-14T13:04:35.160Z,18.53
2019-04-14T13:07:05.594Z,18.37
2019-04-14T13:09:35.527Z,18.37
2019-04-14T13:12:05.515Z,17.50
2019-04-14T13:14:35.426Z,17.90
2019-04-14T13:17:05.613Z,18.57
2019-04-14T13:19:35.529Z,20.33
2019-04-14T13:22:05.404Z,17.83
2019-04-14T13:24:35.338Z,17.60
2019-04-14T13:27:05.301Z,19.00
2019-04-14T13:29:35.258Z,19.27
2019-04-14T13:32:06.225Z,18.07
2019-04-14T13:34:36.141Z,19.97
2019-04-14T13:37:06.098Z,18.10
2019-04-14T13:39:36.005Z,20.10
2019-04-14T13:42:05.923Z,17.33
2019-04-14T13:44:35.888Z,18.73
2019-04-14T13:47:06.135Z,18.53
2019-04-14T13:49:36.036Z,18.90
2019-04-14T13:52:06.131Z,19.27
2019-04-14T13:54:36.091Z,18.13
2019-04-14T13:57:06.023Z,17.03
2019-04-14T13:59:35.930Z,17.10
2019-04-14T14:02:05.252Z,18.10
2019-04-14T14:04:34.385Z,18.17
2019-04-14T14:07:04.279Z,17.73
2019-04-14T14:09:34.117Z,17.87
2019-04-14T14:12:10.278Z,17.57
2019-04-14T14:15:04.610Z,17.17
2019-04-14T14:17:47.496Z,17.17
2019-04-14T14:20:27.016Z,17.53
2019-04-14T14:23:18.253Z,16.87
2019-04-14T14:25:50.712Z,17.03
2019-04-14T14:28:20.575Z,17.33
2019-04-14T14:30:49.888Z,18.13
2019-04-14T14:33:19.159Z,17.00
2019-04-14T14:35:48.348Z,17.00
2019-04-14T14:38:18.181Z,16.33
2019-04-14T14:40:49.233Z,16.83
2019-04-14T14:43:18.774Z,16.30
2019-04-14T14:46:09.952Z,16.67
2019-04-14T14:48:48.864Z,16.63
2019-04-14T14:51:35.713Z,16.83
2019-04-14T14:54:05.584Z,16.93
2019-04-14T14:56:34.964Z,17.57
2019-04-14T14:59:05.177Z,17.63
2019-04-14T15:01:35.025Z,16.53
2019-04-14T15:04:04.309Z,16.73
2019-04-14T15:06:34.156Z,16.77
2019-04-14T15:09:04.847Z,17.53
2019-04-14T15:11:34.054Z,16.83
2019-04-14T15:14:05.447Z,17.30
2019-04-14T15:16:34.787Z,17.03
2019-04-14T15:19:04.670Z,17.50
2019-04-14T15:21:34.498Z,16.37
2019-04-14T15:24:04.035Z,17.37
2019-04-14T15:26:33.865Z,17.73
2019-04-14T15:29:03.728Z,16.37
2019-04-14T15:31:33.800Z,17.77
2019-04-14T15:34:03.742Z,17.87
2019-04-14T15:36:33.684Z,18.17
2019-04-14T15:39:05.489Z,17.47
2019-04-14T15:41:34.714Z,18.33
2019-04-14T15:44:04.559Z,18.43
2019-04-14T15:46:33.916Z,17.90
2019-04-14T15:49:03.250Z,16.23
2019-04-14T15:51:32.486Z,16.77
2019-04-14T15:54:02.321Z,19.03
2019-04-14T15:56:47.638Z,18.70
2019-04-14T15:59:33.581Z,18.97
2019-04-14T16:02:13.103Z,19.03
2019-04-14T16:04:50.083Z,17.33
2019-04-14T16:07:38.961Z,17.70
2019-04-14T16:10:22.888Z,17.50
2019-04-14T16:13:17.213Z,17.30
2019-04-14T16:15:49.974Z,17.53
2019-04-14T16:18:38.685Z,17.37
2019-04-14T16:21:07.925Z,16.43
2019-04-14T16:23:49.985Z,18.57
2019-04-14T16:26:40.841Z,18.10
2019-04-14T16:29:29.045Z,17.47
2019-04-14T16:32:20.845Z,17.83
2019-04-14T16:34:55.967Z,16.97
2019-04-14T16:37:25.218Z,18.20
2019-04-14T16:39:55.078Z,16.97
2019-04-14T16:42:24.373Z,17.23
2019-04-14T16:44:53.555Z,17.00
2019-04-14T16:47:22.905Z,17.00
2019-04-14T16:49:52.732Z,17.10
2019-04-14T16:52:44.662Z,16.40
2019-04-14T16:55:19.538Z,17.03
2019-04-14T16:58:07.462Z,17.00
2019-04-14T17:00:39.770Z,19.17
2019-04-14T17:03:09.009Z,18.67
2019-04-14T17:05:39.167Z,17.93
2019-04-14T17:08:09.354Z,17.07
2019-04-14T17:10:39.279Z,17.13
2019-04-14T17:13:08.667Z,18.43
2019-04-14T17:15:57.527Z,18.67
2019-04-14T17:18:58.317Z,18.50
2019-04-14T17:21:32.842Z,18.00
2019-04-14T17:24:17.151Z,17.67
2019-04-14T17:26:56.445Z,18.87
2019-04-14T17:29:31.512Z,17.80
2019-04-14T17:32:32.224Z,17.13
2019-04-14T17:35:32.645Z,16.73
2019-04-14T17:38:05.802Z,17.80
2019-04-14T17:40:48.533Z,18.50
2019-04-14T17:43:40.093Z,18.63
2019-04-14T17:46:31.767Z,16.83
2019-04-14T17:49:18.813Z,17.03
2019-04-14T17:52:06.154Z,17.13
2019-04-14T17:54:44.029Z,17.47
2019-04-14T17:57:31.295Z,16.43
2019-04-14T18:00:26.149Z,16.97
2019-04-14T18:03:01.217Z,17.67
2019-04-14T18:05:35.586Z,18.10
2019-04-14T18:08:12.433Z,18.43
2019-04-14T18:10:49.607Z,18.00
2019-04-14T18:13:38.484Z,18.40
2019-04-14T18:16:26.408Z,18.00
2019-04-14T18:19:29.517Z,18.27
2019-04-14T18:21:59.417Z,18.43
2019-04-14T18:24:41.330Z,17.97
2019-04-14T18:27:00.674Z,17.37
2019-04-14T18:29:44.505Z,17.57
2019-04-14T18:32:27.741Z,18.90
2019-04-14T18:35:13.639Z,18.33
2019-04-14T18:38:05.357Z,18.20
2019-04-14T18:40:43.137Z,18.23
2019-04-14T18:43:25.426Z,18.23
2019-04-14T18:46:16.860Z,17.97
2019-04-14T18:48:58.702Z,16.53
2019-04-14T18:51:40.006Z,16.50
2019-04-14T18:54:26.709Z,18.27
2019-04-14T18:57:27.350Z,17.33
2019-04-14T19:00:22.384Z,18.57
2019-04-14T19:02:51.707Z,16.53
2019-04-14T19:05:21.541Z,17.53
2019-04-14T19:07:50.919Z,17.43
2019-04-14T19:10:20.761Z,17.60
2019-04-14T19:13:21.725Z,17.67
2019-04-14T19:16:02.657Z,17.63
2019-04-14T19:18:41.113Z,17.83
2019-04-14T19:21:14.114Z,18.73
2019-04-14T19:23:46.422Z,17.50
2019-04-14T19:26:18.106Z,18.10
2019-04-14T19:28:47.275Z,17.80
2019-04-14T19:31:16.526Z,18.23
2019-04-14T19:33:45.769Z,19.83
2019-04-14T19:36:15.034Z,20.17
2019-04-14T19:38:44.833Z,19.17
2019-04-14T19:41:14.717Z,19.47
2019-04-14T19:43:44.029Z,18.93
2019-04-14T19:46:13.232Z,20.53
2019-04-14T19:48:42.483Z,17.60
2019-04-14T19:51:12.321Z,19.60
2019-04-14T19:53:42.204Z,18.47
2019-04-14T19:56:11.519Z,18.00
2019-04-14T19:58:41.411Z,18.37
2019-04-14T20:01:10.732Z,18.00
2019-04-14T20:03:40.568Z,17.60
2019-04-14T20:06:10.511Z,17.57
2019-04-14T20:08:40.321Z,18.80
2019-04-14T20:11:10.294Z,17.77
2019-04-14T20:13:44.341Z,17.33
2019-04-14T20:16:31.529Z,17.63
2019-04-14T20:19:19.809Z,17.73
2019-04-14T20:22:02.036Z,16.67
2019-04-14T20:24:35.508Z,15.77
2019-04-14T20:27:20.148Z,16.90
2019-04-14T20:29:53.038Z,17.20
2019-04-14T20:32:26.170Z,18.50
2019-04-14T20:34:56.206Z,16.93
2019-04-14T20:37:25.557Z,16.50
2019-04-14T20:39:54.716Z,17.27
2019-04-14T20:42:23.954Z,16.63
2019-04-14T20:44:53.758Z,16.60
2019-04-14T20:47:23.818Z,17.33
2019-04-14T20:49:53.698Z,17.37
2019-04-14T20:52:23.033Z,17.83
2019-04-14T20:54:52.826Z,17.67
2019-04-14T20:57:22.215Z,17.50
2019-04-14T20:59:52.113Z,17.87
2019-04-14T21:02:41.941Z,18.67
2019-04-14T21:05:23.457Z,17.13
2019-04-14T21:08:12.166Z,18.03
2019-04-14T21:10:47.501Z,18.07
2019-04-14T21:13:35.865Z,17.80
2019-04-14T21:16:17.442Z,18.40
2019-04-14T21:18:50.195Z,18.40
2019-04-14T21:21:30.366Z,18.17
2019-04-14T21:24:08.966Z,16.73
2019-04-14T21:26:49.506Z,18.37
2019-04-14T21:29:41.053Z,17.87
2019-04-14T21:32:23.694Z,17.13
2019-04-14T21:35:04.784Z,17.80
2019-04-14T21:37:43.903Z,19.00
2019-04-14T21:40:21.701Z,17.63
2019-04-14T21:42:51.582Z,17.73
2019-04-14T21:45:21.488Z,17.53
2019-04-14T21:47:51.347Z,18.00
2019-04-14T21:50:21.258Z,18.60
2019-04-14T21:52:50.511Z,19.27
2019-04-14T21:55:20.340Z,19.90
2019-04-14T21:58:15.669Z,20.20
2019-04-14T22:01:50.587Z,20.87
2019-04-14T22:04:45.831Z,19.77
2019-04-14T22:07:43.818Z,19.83
2019-04-14T22:10:20.954Z,20.80
2019-04-14T22:12:50.958Z,20.83
2019-04-14T22:15:20.991Z,22.07
2019-04-14T22:17:50.966Z,21.73
2019-04-14T22:20:20.259Z,19.83
2019-04-14T22:22:50.097Z,21.50
2019-04-14T22:25:19.413Z,20.33
2019-04-14T22:27:49.193Z,21.83
2019-04-14T22:30:18.455Z,22.53
2019-04-14T22:32:47.725Z,22.37
2019-04-14T22:35:16.979Z,21.50
2019-04-14T22:37:46.209Z,20.23
2019-04-14T22:40:16.293Z,20.70
2019-04-14T22:42:45.609Z,20.43
2019-04-14T22:45:14.892Z,21.20
2019-04-14T22:47:44.654Z,21.27
2019-04-14T22:50:14.697Z,22.10
2019-04-14T22:52:43.986Z,20.83
2019-04-14T22:55:14.162Z,22.17
2019-04-14T22:57:44.211Z,21.10
2019-04-14T23:00:22.010Z,22.37
2019-04-14T23:03:02.056Z,20.67
2019-04-14T23:06:02.865Z,20.90
2019-04-14T23:08:43.061Z,22.50
2019-04-14T23:11:30.682Z,21.33
2019-04-14T23:14:22.017Z,21.67
2019-04-14T23:17:05.326Z,20.80
2019-04-14T23:19:39.559Z,21.17
2019-04-14T23:22:18.430Z,22.37
2019-04-14T23:24:47.990Z,20.97
2019-04-14T23:27:17.810Z,23.27
2019-04-14T23:29:47.118Z,22.43
2019-04-14T23:32:17.045Z,23.47
2019-04-14T23:34:47.106Z,23.10
2019-04-14T23:37:17.017Z,23.03
2019-04-14T23:39:46.350Z,22.43
2019-04-14T23:42:16.186Z,22.73
2019-04-14T23:44:45.522Z,23.13
2019-04-14T23:47:15.321Z,24.27
2019-04-14T23:49:45.191Z,22.87
2019-04-14T23:52:15.038Z,23.20
2019-04-14T23:54:45.109Z,24.00
2019-04-14T23:57:15.025Z,22.90
2019-04-14T23:59:44.425Z,24.13
